sensor_id;sensor_type;location;lat;lon;timestamp;temperature;humidity
21115;DHT22;10715;48.546;9.896;2024-01-30T00:01:29;-2.20;99.90
21115;DHT22;10715;48.546;9.896;2024-01-30T00:03:55;-2.20;99.90
21115;DHT22;10715;48.546;9.896;2024-01-30T00:06:21;-2.20;99.90
21115;DHT22;10715;48.546;9.896;2024-01-30T00:08:47;-2.20;99.90
21115;DHT22;10715;48.546;9.896;2024-01-30T00:11:15;-2.10;99.90
21115;DHT22;10715;48.546;9.896;2024-01-30T00:13:41;-2.10;99.90
21115;DHT22;10715;48.546;9.896;2024-01-30T00:16:07;-2.20;99.90
21115;DHT22;10715;48.546;9.896;2024-01-30T00:18:33;-2.20;99.90
21115;DHT22;10715;48.546;9.896;2024-01-30T00:20:59;-2.20;99.90
21115;DHT22;10715;48.546;9.896;2024-01-30T00:23:24;-2.20;99.90
21115;DHT22;10715;48.546;9.896;2024-01-30T00:25:51;-2.10;99.90
21115;DHT22;10715;48.546;9.896;2024-01-30T00:28:16;-2.10;99.90
21115;DHT22;10715;48.546;9.896;2024-01-30T00:30:42;-2.10;99.90
21115;DHT22;10715;48.546;9.896;2024-01-30T00:33:09;-2.10;99.90
21115;DHT22;10715;48.546;9.896;2024-01-30T00:35:35;-2.10;99.90
21115;DHT22;10715;48.546;9.896;2024-01-30T00:38:01;-2.10;99.90
21115;DHT22;10715;48.546;9.896;2024-01-30T00:40:26;-2.10;99.90
21115;DHT22;10715;48.546;9.896;2024-01-30T00:42:55;-2.10;99.90
21115;DHT22;10715;48.546;9.896;2024-01-30T00:45:21;-2.20;99.90
21115;DHT22;10715;48.546;9.896;2024-01-30T00:47:47;-2.20;99.90
21115;DHT22;10715;48.546;9.896;2024-01-30T00:50:13;-2.20;99.90
21115;DHT22;10715;48.546;9.896;2024-01-30T00:52:41;-2.20;99.90
21115;DHT22;10715;48.546;9.896;2024-01-30T00:55:16;-2.20;99.90
21115;DHT22;10715;48.546;9.896;2024-01-30T00:57:42;-2.20;99.90
21115;DHT22;10715;48.546;9.896;2024-01-30T01:00:08;-2.20;99.90
21115;DHT22;10715;48.546;9.896;2024-01-30T01:02:37;-2.20;99.90
21115;DHT22;10715;48.546;9.896;2024-01-30T01:05:04;-2.20;99.90
21115;DHT22;10715;48.546;9.896;2024-01-30T01:07:33;-2.20;99.90
21115;DHT22;10715;48.546;9.896;2024-01-30T01:10:08;-2.20;99.90
21115;DHT22;10715;48.546;9.896;2024-01-30T01:12:34;-2.30;99.90
21115;DHT22;10715;48.546;9.896;2024-01-30T01:15:00;-2.20;99.90
21115;DHT22;10715;48.546;9.896;2024-01-30T01:17:26;-2.20;99.90
21115;DHT22;10715;48.546;9.896;2024-01-30T01:19:51;-2.30;99.90
21115;DHT22;10715;48.546;9.896;2024-01-30T01:22:20;-2.20;99.90
21115;DHT22;10715;48.546;9.896;2024-01-30T01:24:46;-2.30;99.90
21115;DHT22;10715;48.546;9.896;2024-01-30T01:27:12;-2.30;99.90
21115;DHT22;10715;48.546;9.896;2024-01-30T01:29:37;-2.30;99.90
21115;DHT22;10715;48.546;9.896;2024-01-30T01:32:03;-2.30;99.90
21115;DHT22;10715;48.546;9.896;2024-01-30T01:34:35;-2.30;99.90
21115;DHT22;10715;48.546;9.896;2024-01-30T01:37:04;-2.40;99.90
21115;DHT22;10715;48.546;9.896;2024-01-30T01:39:39;-2.40;99.90
21115;DHT22;10715;48.546;9.896;2024-01-30T01:42:11;-2.40;99.90
21115;DHT22;10715;48.546;9.896;2024-01-30T01:44:36;-2.50;99.90
21115;DHT22;10715;48.546;9.896;2024-01-30T01:47:02;-2.50;99.90
21115;DHT22;10715;48.546;9.896;2024-01-30T01:49:40;-2.50;99.90
21115;DHT22;10715;48.546;9.896;2024-01-30T01:52:06;-2.50;99.90
21115;DHT22;10715;48.546;9.896;2024-01-30T01:54:32;-2.50;99.90
21115;DHT22;10715;48.546;9.896;2024-01-30T01:57:05;-2.50;99.90
21115;DHT22;10715;48.546;9.896;2024-01-30T01:59:34;-2.50;99.90
21115;DHT22;10715;48.546;9.896;2024-01-30T02:02:00;-2.50;99.90
21115;DHT22;10715;48.546;9.896;2024-01-30T02:04:27;-2.60;99.90
21115;DHT22;10715;48.546;9.896;2024-01-30T02:06:53;-2.60;99.90
21115;DHT22;10715;48.546;9.896;2024-01-30T02:09:21;-2.60;99.90
21115;DHT22;10715;48.546;9.896;2024-01-30T02:11:47;-2.60;99.90
21115;DHT22;10715;48.546;9.896;2024-01-30T02:14:13;-2.60;99.90
21115;DHT22;10715;48.546;9.896;2024-01-30T02:16:39;-2.60;99.90
21115;DHT22;10715;48.546;9.896;2024-01-30T02:19:04;-2.60;99.90
21115;DHT22;10715;48.546;9.896;2024-01-30T02:21:30;-2.60;99.90
21115;DHT22;10715;48.546;9.896;2024-01-30T02:23:57;-2.60;99.90
21115;DHT22;10715;48.546;9.896;2024-01-30T02:26:24;-2.60;99.90
21115;DHT22;10715;48.546;9.896;2024-01-30T02:28:49;-2.60;99.90
21115;DHT22;10715;48.546;9.896;2024-01-30T02:31:15;-2.60;99.90
21115;DHT22;10715;48.546;9.896;2024-01-30T02:33:41;-2.60;99.90
21115;DHT22;10715;48.546;9.896;2024-01-30T02:36:06;-2.60;99.90
21115;DHT22;10715;48.546;9.896;2024-01-30T02:38:32;-2.60;99.90
21115;DHT22;10715;48.546;9.896;2024-01-30T02:40:58;-2.60;99.90
21115;DHT22;10715;48.546;9.896;2024-01-30T02:43:24;-2.60;99.90
21115;DHT22;10715;48.546;9.896;2024-01-30T02:45:49;-2.60;99.90
21115;DHT22;10715;48.546;9.896;2024-01-30T02:48:15;-2.60;99.90
21115;DHT22;10715;48.546;9.896;2024-01-30T02:50:41;-2.60;99.90
21115;DHT22;10715;48.546;9.896;2024-01-30T02:53:06;-2.60;99.90
21115;DHT22;10715;48.546;9.896;2024-01-30T02:55:32;-2.60;99.90
21115;DHT22;10715;48.546;9.896;2024-01-30T02:57:58;-2.60;99.90
21115;DHT22;10715;48.546;9.896;2024-01-30T03:00:24;-2.70;99.90
21115;DHT22;10715;48.546;9.896;2024-01-30T03:02:50;-2.60;99.90
21115;DHT22;10715;48.546;9.896;2024-01-30T03:05:15;-2.70;99.90
21115;DHT22;10715;48.546;9.896;2024-01-30T03:07:41;-2.60;99.90
21115;DHT22;10715;48.546;9.896;2024-01-30T03:10:07;-2.70;99.90
21115;DHT22;10715;48.546;9.896;2024-01-30T03:12:33;-2.70;99.90
21115;DHT22;10715;48.546;9.896;2024-01-30T03:14:59;-2.70;99.90
21115;DHT22;10715;48.546;9.896;2024-01-30T03:17:24;-2.70;99.90
21115;DHT22;10715;48.546;9.896;2024-01-30T03:19:50;-2.70;99.90
21115;DHT22;10715;48.546;9.896;2024-01-30T03:22:16;-2.70;99.90
21115;DHT22;10715;48.546;9.896;2024-01-30T03:24:42;-2.70;99.90
21115;DHT22;10715;48.546;9.896;2024-01-30T03:27:08;-2.70;99.90
21115;DHT22;10715;48.546;9.896;2024-01-30T03:29:34;-2.70;99.90
21115;DHT22;10715;48.546;9.896;2024-01-30T03:32:00;-2.70;99.90
21115;DHT22;10715;48.546;9.896;2024-01-30T03:34:26;-2.70;99.90
21115;DHT22;10715;48.546;9.896;2024-01-30T03:36:51;-2.70;99.90
21115;DHT22;10715;48.546;9.896;2024-01-30T03:39:17;-2.70;99.90
21115;DHT22;10715;48.546;9.896;2024-01-30T03:41:43;-2.70;99.90
21115;DHT22;10715;48.546;9.896;2024-01-30T03:44:10;-2.70;99.90
21115;DHT22;10715;48.546;9.896;2024-01-30T03:46:35;-2.70;99.90
21115;DHT22;10715;48.546;9.896;2024-01-30T03:49:01;-2.70;99.90
21115;DHT22;10715;48.546;9.896;2024-01-30T03:51:27;-2.70;99.90
21115;DHT22;10715;48.546;9.896;2024-01-30T03:53:52;-2.70;99.90
21115;DHT22;10715;48.546;9.896;2024-01-30T03:56:18;-2.70;99.90
21115;DHT22;10715;48.546;9.896;2024-01-30T03:58:44;-2.70;99.90
21115;DHT22;10715;48.546;9.896;2024-01-30T04:01:13;-2.70;99.90
21115;DHT22;10715;48.546;9.896;2024-01-30T04:03:40;-2.70;99.90
21115;DHT22;10715;48.546;9.896;2024-01-30T04:06:06;-2.80;99.90
21115;DHT22;10715;48.546;9.896;2024-01-30T04:08:32;-2.80;99.90
21115;DHT22;10715;48.546;9.896;2024-01-30T04:10:58;-2.80;99.90
21115;DHT22;10715;48.546;9.896;2024-01-30T04:13:23;-2.80;99.90
21115;DHT22;10715;48.546;9.896;2024-01-30T04:15:49;-2.80;99.90
21115;DHT22;10715;48.546;9.896;2024-01-30T04:18:15;-2.90;99.90
21115;DHT22;10715;48.546;9.896;2024-01-30T04:20:40;-2.90;99.90
21115;DHT22;10715;48.546;9.896;2024-01-30T04:23:06;-2.90;99.90
21115;DHT22;10715;48.546;9.896;2024-01-30T04:25:32;-3.00;99.90
21115;DHT22;10715;48.546;9.896;2024-01-30T04:27:57;-3.00;99.90
21115;DHT22;10715;48.546;9.896;2024-01-30T04:30:23;-2.90;99.90
21115;DHT22;10715;48.546;9.896;2024-01-30T04:32:49;-3.00;99.90
21115;DHT22;10715;48.546;9.896;2024-01-30T04:35:14;-3.00;99.90
21115;DHT22;10715;48.546;9.896;2024-01-30T04:37:40;-3.00;99.90
21115;DHT22;10715;48.546;9.896;2024-01-30T04:40:06;-3.00;99.90
21115;DHT22;10715;48.546;9.896;2024-01-30T04:42:32;-3.00;99.90
21115;DHT22;10715;48.546;9.896;2024-01-30T04:44:58;-3.00;99.90
21115;DHT22;10715;48.546;9.896;2024-01-30T04:47:23;-3.00;99.90
21115;DHT22;10715;48.546;9.896;2024-01-30T04:49:51;-3.10;99.90
21115;DHT22;10715;48.546;9.896;2024-01-30T04:52:17;-3.10;99.90
21115;DHT22;10715;48.546;9.896;2024-01-30T04:54:42;-3.00;99.90
21115;DHT22;10715;48.546;9.896;2024-01-30T04:57:08;-3.10;99.90
21115;DHT22;10715;48.546;9.896;2024-01-30T04:59:37;-3.10;99.90
21115;DHT22;10715;48.546;9.896;2024-01-30T05:02:03;-3.10;99.90
21115;DHT22;10715;48.546;9.896;2024-01-30T05:04:29;-3.10;99.90
21115;DHT22;10715;48.546;9.896;2024-01-30T05:06:54;-3.10;99.90
21115;DHT22;10715;48.546;9.896;2024-01-30T05:09:20;-3.10;99.90
21115;DHT22;10715;48.546;9.896;2024-01-30T05:11:46;-3.10;99.90
21115;DHT22;10715;48.546;9.896;2024-01-30T05:14:12;-3.10;99.90
21115;DHT22;10715;48.546;9.896;2024-01-30T05:16:40;-3.10;99.90
21115;DHT22;10715;48.546;9.896;2024-01-30T05:19:06;-3.10;99.90
21115;DHT22;10715;48.546;9.896;2024-01-30T05:21:32;-3.20;99.90
21115;DHT22;10715;48.546;9.896;2024-01-30T05:23:58;-3.20;99.90
21115;DHT22;10715;48.546;9.896;2024-01-30T05:26:23;-3.20;99.90
21115;DHT22;10715;48.546;9.896;2024-01-30T05:28:49;-3.20;99.90
21115;DHT22;10715;48.546;9.896;2024-01-30T05:31:15;-3.20;99.90
21115;DHT22;10715;48.546;9.896;2024-01-30T05:33:41;-3.20;99.90
21115;DHT22;10715;48.546;9.896;2024-01-30T05:36:07;-3.20;99.90
21115;DHT22;10715;48.546;9.896;2024-01-30T05:38:32;-3.10;99.90
21115;DHT22;10715;48.546;9.896;2024-01-30T05:40:58;-3.10;99.90
21115;DHT22;10715;48.546;9.896;2024-01-30T05:43:24;-3.10;99.90
21115;DHT22;10715;48.546;9.896;2024-01-30T05:45:50;-3.00;99.90
21115;DHT22;10715;48.546;9.896;2024-01-30T05:48:16;-2.90;99.90
21115;DHT22;10715;48.546;9.896;2024-01-30T05:50:42;-2.90;99.90
21115;DHT22;10715;48.546;9.896;2024-01-30T05:53:07;-2.90;99.90
21115;DHT22;10715;48.546;9.896;2024-01-30T05:55:33;-2.80;99.90
21115;DHT22;10715;48.546;9.896;2024-01-30T05:57:59;-2.90;99.90
21115;DHT22;10715;48.546;9.896;2024-01-30T06:00:24;-2.90;99.90
21115;DHT22;10715;48.546;9.896;2024-01-30T06:02:50;-2.90;99.90
21115;DHT22;10715;48.546;9.896;2024-01-30T06:05:16;-2.90;99.90
21115;DHT22;10715;48.546;9.896;2024-01-30T06:07:42;-2.90;99.90
21115;DHT22;10715;48.546;9.896;2024-01-30T06:10:08;-3.00;99.90
21115;DHT22;10715;48.546;9.896;2024-01-30T06:12:34;-3.00;99.90
21115;DHT22;10715;48.546;9.896;2024-01-30T06:15:01;-3.00;99.90
21115;DHT22;10715;48.546;9.896;2024-01-30T06:17:26;-3.00;99.90
21115;DHT22;10715;48.546;9.896;2024-01-30T06:19:52;-3.00;99.90
21115;DHT22;10715;48.546;9.896;2024-01-30T06:22:18;-3.00;99.90
21115;DHT22;10715;48.546;9.896;2024-01-30T06:24:43;-3.00;99.90
21115;DHT22;10715;48.546;9.896;2024-01-30T06:27:14;-3.00;99.90
21115;DHT22;10715;48.546;9.896;2024-01-30T06:29:42;-3.00;99.90
21115;DHT22;10715;48.546;9.896;2024-01-30T06:32:08;-2.90;99.90
21115;DHT22;10715;48.546;9.896;2024-01-30T06:34:34;-3.00;99.90
21115;DHT22;10715;48.546;9.896;2024-01-30T06:37:00;-2.90;99.90
21115;DHT22;10715;48.546;9.896;2024-01-30T06:39:26;-2.90;99.90
21115;DHT22;10715;48.546;9.896;2024-01-30T06:41:52;-2.90;99.90
21115;DHT22;10715;48.546;9.896;2024-01-30T06:44:18;-2.90;99.90
21115;DHT22;10715;48.546;9.896;2024-01-30T06:46:43;-2.90;99.90
21115;DHT22;10715;48.546;9.896;2024-01-30T06:49:09;-2.90;99.90
21115;DHT22;10715;48.546;9.896;2024-01-30T06:51:35;-2.80;99.90
21115;DHT22;10715;48.546;9.896;2024-01-30T06:54:01;-2.80;99.90
21115;DHT22;10715;48.546;9.896;2024-01-30T06:56:26;-2.80;99.90
21115;DHT22;10715;48.546;9.896;2024-01-30T06:58:52;-2.80;99.90
21115;DHT22;10715;48.546;9.896;2024-01-30T07:01:18;-2.80;99.90
21115;DHT22;10715;48.546;9.896;2024-01-30T07:03:44;-2.90;99.90
21115;DHT22;10715;48.546;9.896;2024-01-30T07:06:10;-2.80;99.90
21115;DHT22;10715;48.546;9.896;2024-01-30T07:08:38;-2.80;99.90
21115;DHT22;10715;48.546;9.896;2024-01-30T07:11:07;-2.80;99.90
21115;DHT22;10715;48.546;9.896;2024-01-30T07:13:34;-2.80;99.90
21115;DHT22;10715;48.546;9.896;2024-01-30T07:16:00;-2.70;99.90
21115;DHT22;10715;48.546;9.896;2024-01-30T07:18:25;-2.70;99.90
21115;DHT22;10715;48.546;9.896;2024-01-30T07:20:52;-2.70;99.90
21115;DHT22;10715;48.546;9.896;2024-01-30T07:23:17;-2.60;99.90
21115;DHT22;10715;48.546;9.896;2024-01-30T07:25:46;-2.60;99.90
21115;DHT22;10715;48.546;9.896;2024-01-30T07:28:15;-2.60;99.90
21115;DHT22;10715;48.546;9.896;2024-01-30T07:30:44;-2.60;99.90
21115;DHT22;10715;48.546;9.896;2024-01-30T07:33:10;-2.70;99.90
21115;DHT22;10715;48.546;9.896;2024-01-30T07:35:36;-2.60;99.90
21115;DHT22;10715;48.546;9.896;2024-01-30T07:38:02;-2.70;99.90
21115;DHT22;10715;48.546;9.896;2024-01-30T07:40:28;-2.70;99.90
21115;DHT22;10715;48.546;9.896;2024-01-30T07:42:54;-2.70;99.90
21115;DHT22;10715;48.546;9.896;2024-01-30T07:45:20;-2.70;99.90
21115;DHT22;10715;48.546;9.896;2024-01-30T07:47:49;-2.70;99.90
21115;DHT22;10715;48.546;9.896;2024-01-30T07:50:15;-2.70;99.90
21115;DHT22;10715;48.546;9.896;2024-01-30T07:52:41;-2.70;99.90
21115;DHT22;10715;48.546;9.896;2024-01-30T07:55:07;-2.70;99.90
21115;DHT22;10715;48.546;9.896;2024-01-30T07:57:33;-2.70;99.90
21115;DHT22;10715;48.546;9.896;2024-01-30T08:00:02;-2.60;99.90
21115;DHT22;10715;48.546;9.896;2024-01-30T08:02:28;-2.60;99.90
21115;DHT22;10715;48.546;9.896;2024-01-30T08:04:54;-2.60;99.90
21115;DHT22;10715;48.546;9.896;2024-01-30T08:07:20;-2.60;99.90
21115;DHT22;10715;48.546;9.896;2024-01-30T08:09:47;-2.50;99.90
21115;DHT22;10715;48.546;9.896;2024-01-30T08:12:13;-2.50;99.90
21115;DHT22;10715;48.546;9.896;2024-01-30T08:14:39;-2.50;99.90
21115;DHT22;10715;48.546;9.896;2024-01-30T08:17:06;-2.40;99.90
21115;DHT22;10715;48.546;9.896;2024-01-30T08:19:33;-2.40;99.90
21115;DHT22;10715;48.546;9.896;2024-01-30T08:21:59;-2.40;99.90
21115;DHT22;10715;48.546;9.896;2024-01-30T08:24:25;-2.30;99.90
21115;DHT22;10715;48.546;9.896;2024-01-30T08:26:50;-2.30;99.90
21115;DHT22;10715;48.546;9.896;2024-01-30T08:29:16;-2.20;99.90
21115;DHT22;10715;48.546;9.896;2024-01-30T08:31:42;-2.10;99.90
21115;DHT22;10715;48.546;9.896;2024-01-30T08:34:08;-2.10;99.90
21115;DHT22;10715;48.546;9.896;2024-01-30T08:36:33;-2.00;99.90
21115;DHT22;10715;48.546;9.896;2024-01-30T08:38:59;-1.90;99.90
21115;DHT22;10715;48.546;9.896;2024-01-30T08:41:25;-1.80;99.90
21115;DHT22;10715;48.546;9.896;2024-01-30T08:43:52;-1.80;99.90
21115;DHT22;10715;48.546;9.896;2024-01-30T08:46:18;-1.70;99.90
21115;DHT22;10715;48.546;9.896;2024-01-30T08:48:44;-1.60;99.90
21115;DHT22;10715;48.546;9.896;2024-01-30T08:51:10;-1.50;99.90
21115;DHT22;10715;48.546;9.896;2024-01-30T08:53:36;-1.40;99.90
21115;DHT22;10715;48.546;9.896;2024-01-30T08:56:03;-1.40;99.90
21115;DHT22;10715;48.546;9.896;2024-01-30T08:58:29;-1.30;99.90
21115;DHT22;10715;48.546;9.896;2024-01-30T09:00:55;-1.20;99.90
21115;DHT22;10715;48.546;9.896;2024-01-30T09:03:20;-1.20;99.90
21115;DHT22;10715;48.546;9.896;2024-01-30T09:05:46;-1.10;99.90
21115;DHT22;10715;48.546;9.896;2024-01-30T09:08:12;-1.10;99.90
21115;DHT22;10715;48.546;9.896;2024-01-30T09:10:37;-1.00;99.90
21115;DHT22;10715;48.546;9.896;2024-01-30T09:13:03;-0.90;99.90
21115;DHT22;10715;48.546;9.896;2024-01-30T09:15:29;-0.90;99.90
21115;DHT22;10715;48.546;9.896;2024-01-30T09:17:55;-0.80;99.90
21115;DHT22;10715;48.546;9.896;2024-01-30T09:20:20;-0.80;99.90
21115;DHT22;10715;48.546;9.896;2024-01-30T09:22:47;-0.70;99.90
21115;DHT22;10715;48.546;9.896;2024-01-30T09:25:14;-0.70;99.90
21115;DHT22;10715;48.546;9.896;2024-01-30T09:27:40;-0.60;99.90
21115;DHT22;10715;48.546;9.896;2024-01-30T09:30:06;-0.50;99.90
21115;DHT22;10715;48.546;9.896;2024-01-30T09:32:32;-0.50;99.90
21115;DHT22;10715;48.546;9.896;2024-01-30T09:34:58;-0.40;99.90
21115;DHT22;10715;48.546;9.896;2024-01-30T09:37:24;-0.40;99.90
21115;DHT22;10715;48.546;9.896;2024-01-30T09:39:49;-0.30;99.90
21115;DHT22;10715;48.546;9.896;2024-01-30T09:42:35;-0.20;99.90
21115;DHT22;10715;48.546;9.896;2024-01-30T09:45:05;-0.10;99.90
21115;DHT22;10715;48.546;9.896;2024-01-30T09:47:32;0.00;99.90
21115;DHT22;10715;48.546;9.896;2024-01-30T09:50:01;0.00;99.90
21115;DHT22;10715;48.546;9.896;2024-01-30T09:52:28;0.10;99.90
21115;DHT22;10715;48.546;9.896;2024-01-30T09:54:54;0.20;99.90
21115;DHT22;10715;48.546;9.896;2024-01-30T09:57:20;0.30;99.90
21115;DHT22;10715;48.546;9.896;2024-01-30T09:59:46;0.30;99.90
21115;DHT22;10715;48.546;9.896;2024-01-30T10:02:12;0.40;99.90
21115;DHT22;10715;48.546;9.896;2024-01-30T10:04:38;0.50;99.90
21115;DHT22;10715;48.546;9.896;2024-01-30T10:07:04;0.60;99.90
21115;DHT22;10715;48.546;9.896;2024-01-30T10:09:33;0.70;99.90
21115;DHT22;10715;48.546;9.896;2024-01-30T10:12:02;0.80;99.90
21115;DHT22;10715;48.546;9.896;2024-01-30T10:14:29;0.80;99.90
21115;DHT22;10715;48.546;9.896;2024-01-30T10:16:55;0.90;99.90
21115;DHT22;10715;48.546;9.896;2024-01-30T10:19:21;0.90;99.90
21115;DHT22;10715;48.546;9.896;2024-01-30T10:21:47;1.00;99.90
21115;DHT22;10715;48.546;9.896;2024-01-30T10:24:12;1.10;99.90
21115;DHT22;10715;48.546;9.896;2024-01-30T10:26:39;1.20;99.90
21115;DHT22;10715;48.546;9.896;2024-01-30T10:29:05;1.30;99.90
21115;DHT22;10715;48.546;9.896;2024-01-30T10:31:31;1.40;99.90
21115;DHT22;10715;48.546;9.896;2024-01-30T10:33:56;1.50;99.90
21115;DHT22;10715;48.546;9.896;2024-01-30T10:36:28;1.60;99.90
21115;DHT22;10715;48.546;9.896;2024-01-30T10:38:56;1.70;99.90
21115;DHT22;10715;48.546;9.896;2024-01-30T10:41:27;1.80;99.90
21115;DHT22;10715;48.546;9.896;2024-01-30T10:44:07;1.90;99.90
21115;DHT22;10715;48.546;9.896;2024-01-30T10:46:38;2.00;99.90
21115;DHT22;10715;48.546;9.896;2024-01-30T10:49:04;2.10;99.90
21115;DHT22;10715;48.546;9.896;2024-01-30T10:51:31;2.20;99.90
21115;DHT22;10715;48.546;9.896;2024-01-30T10:53:58;2.30;99.90
21115;DHT22;10715;48.546;9.896;2024-01-30T10:56:24;2.30;99.90
21115;DHT22;10715;48.546;9.896;2024-01-30T10:58:53;2.50;99.90
21115;DHT22;10715;48.546;9.896;2024-01-30T11:01:23;2.60;99.90
21115;DHT22;10715;48.546;9.896;2024-01-30T11:03:53;2.70;99.90
21115;DHT22;10715;48.546;9.896;2024-01-30T11:06:26;2.80;99.90
21115;DHT22;10715;48.546;9.896;2024-01-30T11:09:06;2.90;99.90
21115;DHT22;10715;48.546;9.896;2024-01-30T11:11:56;3.00;99.90
21115;DHT22;10715;48.546;9.896;2024-01-30T11:14:30;3.10;99.90
21115;DHT22;10715;48.546;9.896;2024-01-30T11:16:59;3.20;99.90
21115;DHT22;10715;48.546;9.896;2024-01-30T11:19:26;3.30;99.90
21115;DHT22;10715;48.546;9.896;2024-01-30T11:21:53;3.30;99.90
21115;DHT22;10715;48.546;9.896;2024-01-30T11:24:28;3.50;99.90
21115;DHT22;10715;48.546;9.896;2024-01-30T11:27:01;3.50;99.90
21115;DHT22;10715;48.546;9.896;2024-01-30T11:29:29;3.60;99.90
21115;DHT22;10715;48.546;9.896;2024-01-30T11:31:57;3.70;99.90
21115;DHT22;10715;48.546;9.896;2024-01-30T11:34:23;3.80;99.90
21115;DHT22;10715;48.546;9.896;2024-01-30T11:37:00;3.90;99.90
21115;DHT22;10715;48.546;9.896;2024-01-30T11:39:31;4.00;99.90
21115;DHT22;10715;48.546;9.896;2024-01-30T11:41:59;4.10;99.90
21115;DHT22;10715;48.546;9.896;2024-01-30T11:44:25;4.20;99.90
21115;DHT22;10715;48.546;9.896;2024-01-30T11:46:52;4.30;99.90
21115;DHT22;10715;48.546;9.896;2024-01-30T11:49:18;4.30;99.90
21115;DHT22;10715;48.546;9.896;2024-01-30T11:51:47;4.40;99.90
21115;DHT22;10715;48.546;9.896;2024-01-30T11:54:15;4.50;99.90
21115;DHT22;10715;48.546;9.896;2024-01-30T11:56:42;4.60;99.90
21115;DHT22;10715;48.546;9.896;2024-01-30T11:59:08;4.60;99.90
21115;DHT22;10715;48.546;9.896;2024-01-30T12:01:34;4.70;99.90
21115;DHT22;10715;48.546;9.896;2024-01-30T12:04:00;4.70;99.90
21115;DHT22;10715;48.546;9.896;2024-01-30T12:06:27;4.80;99.90
21115;DHT22;10715;48.546;9.896;2024-01-30T12:09:00;4.90;99.90
21115;DHT22;10715;48.546;9.896;2024-01-30T12:11:27;4.90;99.90
21115;DHT22;10715;48.546;9.896;2024-01-30T12:13:53;5.00;99.90
21115;DHT22;10715;48.546;9.896;2024-01-30T12:16:20;5.10;99.90
21115;DHT22;10715;48.546;9.896;2024-01-30T12:18:46;5.10;99.90
21115;DHT22;10715;48.546;9.896;2024-01-30T12:21:12;5.20;99.90
21115;DHT22;10715;48.546;9.896;2024-01-30T12:23:38;5.20;99.90
21115;DHT22;10715;48.546;9.896;2024-01-30T12:26:04;5.30;99.90
21115;DHT22;10715;48.546;9.896;2024-01-30T12:28:33;5.30;99.90
21115;DHT22;10715;48.546;9.896;2024-01-30T12:31:02;5.40;99.90
21115;DHT22;10715;48.546;9.896;2024-01-30T12:33:31;5.40;99.90
21115;DHT22;10715;48.546;9.896;2024-01-30T12:36:00;5.50;99.90
21115;DHT22;10715;48.546;9.896;2024-01-30T12:38:27;5.50;99.90
21115;DHT22;10715;48.546;9.896;2024-01-30T12:40:56;5.60;99.90
21115;DHT22;10715;48.546;9.896;2024-01-30T12:43:23;5.60;99.90
21115;DHT22;10715;48.546;9.896;2024-01-30T12:45:49;5.70;99.90
21115;DHT22;10715;48.546;9.896;2024-01-30T12:48:15;5.70;99.90
21115;DHT22;10715;48.546;9.896;2024-01-30T12:50:41;5.80;99.90
21115;DHT22;10715;48.546;9.896;2024-01-30T12:53:07;5.80;99.90
21115;DHT22;10715;48.546;9.896;2024-01-30T12:55:34;5.90;99.90
21115;DHT22;10715;48.546;9.896;2024-01-30T12:58:00;5.90;99.90
21115;DHT22;10715;48.546;9.896;2024-01-30T13:00:26;5.90;99.90
21115;DHT22;10715;48.546;9.896;2024-01-30T13:02:52;6.00;99.90
21115;DHT22;10715;48.546;9.896;2024-01-30T13:05:18;6.00;99.90
21115;DHT22;10715;48.546;9.896;2024-01-30T13:07:44;6.10;99.90
21115;DHT22;10715;48.546;9.896;2024-01-30T13:10:09;6.10;99.90
21115;DHT22;10715;48.546;9.896;2024-01-30T13:12:35;6.10;99.90
21115;DHT22;10715;48.546;9.896;2024-01-30T13:15:02;6.20;99.90
21115;DHT22;10715;48.546;9.896;2024-01-30T13:17:30;6.20;99.90
21115;DHT22;10715;48.546;9.896;2024-01-30T13:19:56;6.20;99.90
21115;DHT22;10715;48.546;9.896;2024-01-30T13:22:22;6.30;99.90
21115;DHT22;10715;48.546;9.896;2024-01-30T13:24:48;6.30;99.90
21115;DHT22;10715;48.546;9.896;2024-01-30T13:27:14;6.40;99.90
21115;DHT22;10715;48.546;9.896;2024-01-30T13:29:39;6.40;99.90
21115;DHT22;10715;48.546;9.896;2024-01-30T13:32:05;6.40;99.90
21115;DHT22;10715;48.546;9.896;2024-01-30T13:34:31;6.50;99.90
21115;DHT22;10715;48.546;9.896;2024-01-30T13:36:57;6.50;99.90
21115;DHT22;10715;48.546;9.896;2024-01-30T13:39:22;6.50;99.90
21115;DHT22;10715;48.546;9.896;2024-01-30T13:41:49;6.50;99.90
21115;DHT22;10715;48.546;9.896;2024-01-30T13:44:15;6.60;99.90
21115;DHT22;10715;48.546;9.896;2024-01-30T13:46:42;6.60;99.90
21115;DHT22;10715;48.546;9.896;2024-01-30T13:49:08;6.60;99.90
21115;DHT22;10715;48.546;9.896;2024-01-30T13:51:33;6.60;99.90
21115;DHT22;10715;48.546;9.896;2024-01-30T13:53:59;6.70;99.90
21115;DHT22;10715;48.546;9.896;2024-01-30T13:56:25;6.70;99.90
21115;DHT22;10715;48.546;9.896;2024-01-30T13:58:52;6.70;99.90
21115;DHT22;10715;48.546;9.896;2024-01-30T14:01:18;6.70;99.90
21115;DHT22;10715;48.546;9.896;2024-01-30T14:03:44;6.70;99.90
21115;DHT22;10715;48.546;9.896;2024-01-30T14:06:11;6.70;99.90
21115;DHT22;10715;48.546;9.896;2024-01-30T14:08:37;6.70;99.90
21115;DHT22;10715;48.546;9.896;2024-01-30T14:11:03;6.70;99.90
21115;DHT22;10715;48.546;9.896;2024-01-30T14:13:29;6.80;99.90
21115;DHT22;10715;48.546;9.896;2024-01-30T14:15:56;6.80;99.90
21115;DHT22;10715;48.546;9.896;2024-01-30T14:18:22;6.80;99.90
21115;DHT22;10715;48.546;9.896;2024-01-30T14:20:48;6.70;99.90
21115;DHT22;10715;48.546;9.896;2024-01-30T14:23:14;6.70;99.90
21115;DHT22;10715;48.546;9.896;2024-01-30T14:25:40;6.70;99.90
21115;DHT22;10715;48.546;9.896;2024-01-30T14:28:06;6.70;99.90
21115;DHT22;10715;48.546;9.896;2024-01-30T14:30:31;6.70;99.90
21115;DHT22;10715;48.546;9.896;2024-01-30T14:32:57;6.70;99.90
21115;DHT22;10715;48.546;9.896;2024-01-30T14:35:23;6.70;99.90
21115;DHT22;10715;48.546;9.896;2024-01-30T14:37:49;6.60;99.90
21115;DHT22;10715;48.546;9.896;2024-01-30T14:40:15;6.60;99.90
21115;DHT22;10715;48.546;9.896;2024-01-30T14:42:40;6.60;99.90
21115;DHT22;10715;48.546;9.896;2024-01-30T14:45:06;6.60;99.90
21115;DHT22;10715;48.546;9.896;2024-01-30T14:47:33;6.60;99.90
21115;DHT22;10715;48.546;9.896;2024-01-30T14:49:59;6.60;99.90
21115;DHT22;10715;48.546;9.896;2024-01-30T14:52:24;6.60;99.90
21115;DHT22;10715;48.546;9.896;2024-01-30T14:54:50;6.50;99.90
21115;DHT22;10715;48.546;9.896;2024-01-30T14:57:16;6.50;99.90
21115;DHT22;10715;48.546;9.896;2024-01-30T14:59:43;6.50;99.90
21115;DHT22;10715;48.546;9.896;2024-01-30T15:02:09;6.50;99.90
21115;DHT22;10715;48.546;9.896;2024-01-30T15:04:35;6.50;99.90
21115;DHT22;10715;48.546;9.896;2024-01-30T15:07:01;6.40;99.90
21115;DHT22;10715;48.546;9.896;2024-01-30T15:09:27;6.40;99.90
21115;DHT22;10715;48.546;9.896;2024-01-30T15:11:52;6.30;99.90
21115;DHT22;10715;48.546;9.896;2024-01-30T15:14:18;6.30;99.90
21115;DHT22;10715;48.546;9.896;2024-01-30T15:16:44;6.30;99.90
21115;DHT22;10715;48.546;9.896;2024-01-30T15:19:10;6.20;99.90
21115;DHT22;10715;48.546;9.896;2024-01-30T15:21:36;6.20;99.90
21115;DHT22;10715;48.546;9.896;2024-01-30T15:24:02;6.10;99.90
21115;DHT22;10715;48.546;9.896;2024-01-30T15:26:29;6.10;99.90
21115;DHT22;10715;48.546;9.896;2024-01-30T15:28:54;6.00;99.90
21115;DHT22;10715;48.546;9.896;2024-01-30T15:31:20;6.00;99.90
21115;DHT22;10715;48.546;9.896;2024-01-30T15:33:46;5.90;99.90